sensor_id;sensor_type;location;lat;lon;timestamp;temperature;humidity
10468;DHT22;5281;48.878;9.394;2022-11-15T00:00:26;13.10;99.90
10468;DHT22;5281;48.878;9.394;2022-11-15T00:02:53;13.20;99.90
10468;DHT22;5281;48.878;9.394;2022-11-15T00:05:20;13.20;99.90
10468;DHT22;5281;48.878;9.394;2022-11-15T00:07:47;13.30;99.90
10468;DHT22;5281;48.878;9.394;2022-11-15T00:10:14;13.40;99.90
10468;DHT22;5281;48.878;9.394;2022-11-15T00:12:42;13.50;99.90
10468;DHT22;5281;48.878;9.394;2022-11-15T00:15:08;13.50;99.90
10468;DHT22;5281;48.878;9.394;2022-11-15T00:17:35;13.50;99.90
10468;DHT22;5281;48.878;9.394;2022-11-15T00:20:02;13.40;99.90
10468;DHT22;5281;48.878;9.394;2022-11-15T00:22:31;13.30;99.90
10468;DHT22;5281;48.878;9.394;2022-11-15T00:24:58;13.30;99.90
10468;DHT22;5281;48.878;9.394;2022-11-15T00:27:25;13.30;99.90
10468;DHT22;5281;48.878;9.394;2022-11-15T00:29:54;13.30;99.90
10468;DHT22;5281;48.878;9.394;2022-11-15T00:32:20;13.30;99.90
10468;DHT22;5281;48.878;9.394;2022-11-15T00:34:47;13.50;99.90
10468;DHT22;5281;48.878;9.394;2022-11-15T00:37:14;13.50;99.90
10468;DHT22;5281;48.878;9.394;2022-11-15T00:39:40;13.60;99.90
10468;DHT22;5281;48.878;9.394;2022-11-15T00:42:07;13.60;99.90
10468;DHT22;5281;48.878;9.394;2022-11-15T00:44:34;13.60;99.90
10468;DHT22;5281;48.878;9.394;2022-11-15T00:47:02;13.60;99.90
10468;DHT22;5281;48.878;9.394;2022-11-15T00:49:29;13.50;99.90
10468;DHT22;5281;48.878;9.394;2022-11-15T00:51:55;13.50;99.90
10468;DHT22;5281;48.878;9.394;2022-11-15T00:54:22;13.40;99.90
10468;DHT22;5281;48.878;9.394;2022-11-15T00:56:49;13.30;99.90
10468;DHT22;5281;48.878;9.394;2022-11-15T00:59:15;13.20;99.90
10468;DHT22;5281;48.878;9.394;2022-11-15T01:01:42;13.20;99.90
10468;DHT22;5281;48.878;9.394;2022-11-15T01:04:10;13.20;99.90
10468;DHT22;5281;48.878;9.394;2022-11-15T01:06:37;13.10;99.90
10468;DHT22;5281;48.878;9.394;2022-11-15T01:09:04;13.20;99.90
10468;DHT22;5281;48.878;9.394;2022-11-15T01:11:30;13.20;99.90
10468;DHT22;5281;48.878;9.394;2022-11-15T01:13:57;13.20;99.90
10468;DHT22;5281;48.878;9.394;2022-11-15T01:16:24;13.10;99.90
10468;DHT22;5281;48.878;9.394;2022-11-15T01:18:50;13.10;99.90
10468;DHT22;5281;48.878;9.394;2022-11-15T01:21:19;12.90;99.90
10468;DHT22;5281;48.878;9.394;2022-11-15T01:23:46;12.70;99.90
10468;DHT22;5281;48.878;9.394;2022-11-15T01:26:14;12.60;99.90
10468;DHT22;5281;48.878;9.394;2022-11-15T01:28:41;12.40;99.90
10468;DHT22;5281;48.878;9.394;2022-11-15T01:31:12;12.20;99.90
10468;DHT22;5281;48.878;9.394;2022-11-15T01:33:39;12.10;99.90
10468;DHT22;5281;48.878;9.394;2022-11-15T01:36:06;12.10;99.90
10468;DHT22;5281;48.878;9.394;2022-11-15T01:38:35;12.00;99.90
10468;DHT22;5281;48.878;9.394;2022-11-15T01:41:03;11.80;99.90
10468;DHT22;5281;48.878;9.394;2022-11-15T01:43:32;11.60;99.90
10468;DHT22;5281;48.878;9.394;2022-11-15T01:46:02;11.50;99.90
10468;DHT22;5281;48.878;9.394;2022-11-15T01:48:32;11.40;99.90
10468;DHT22;5281;48.878;9.394;2022-11-15T01:51:01;11.30;99.90
10468;DHT22;5281;48.878;9.394;2022-11-15T01:53:29;11.40;99.90
10468;DHT22;5281;48.878;9.394;2022-11-15T01:56:02;11.40;99.90
10468;DHT22;5281;48.878;9.394;2022-11-15T01:58:30;11.40;99.90
10468;DHT22;5281;48.878;9.394;2022-11-15T02:00:58;11.50;99.90
10468;DHT22;5281;48.878;9.394;2022-11-15T02:03:33;11.40;99.90
10468;DHT22;5281;48.878;9.394;2022-11-15T02:06:02;11.30;99.90
10468;DHT22;5281;48.878;9.394;2022-11-15T02:08:30;11.30;99.90
10468;DHT22;5281;48.878;9.394;2022-11-15T02:10:57;11.40;99.90
10468;DHT22;5281;48.878;9.394;2022-11-15T02:13:25;11.30;99.90
10468;DHT22;5281;48.878;9.394;2022-11-15T02:16:00;11.20;99.90
10468;DHT22;5281;48.878;9.394;2022-11-15T02:18:34;11.30;99.90
10468;DHT22;5281;48.878;9.394;2022-11-15T02:21:09;11.30;99.90
10468;DHT22;5281;48.878;9.394;2022-11-15T02:24:05;11.20;99.90
10468;DHT22;5281;48.878;9.394;2022-11-15T02:30:03;11.20;99.90
10468;DHT22;5281;48.878;9.394;2022-11-15T02:32:36;11.20;99.90
10468;DHT22;5281;48.878;9.394;2022-11-15T02:35:14;11.20;99.90
10468;DHT22;5281;48.878;9.394;2022-11-15T02:37:47;11.20;99.90
10468;DHT22;5281;48.878;9.394;2022-11-15T02:40:26;11.20;99.90
10468;DHT22;5281;48.878;9.394;2022-11-15T02:42:55;11.10;99.90
10468;DHT22;5281;48.878;9.394;2022-11-15T02:45:44;11.20;99.90
10468;DHT22;5281;48.878;9.394;2022-11-15T02:48:14;11.30;99.90
10468;DHT22;5281;48.878;9.394;2022-11-15T02:50:42;11.30;99.90
10468;DHT22;5281;48.878;9.394;2022-11-15T02:53:09;11.20;99.90
10468;DHT22;5281;48.878;9.394;2022-11-15T02:55:37;11.20;99.90
10468;DHT22;5281;48.878;9.394;2022-11-15T02:58:23;11.10;99.90
10468;DHT22;5281;48.878;9.394;2022-11-15T03:00:58;11.00;99.90
10468;DHT22;5281;48.878;9.394;2022-11-15T03:03:43;10.90;99.90
10468;DHT22;5281;48.878;9.394;2022-11-15T03:06:20;11.00;99.90
10468;DHT22;5281;48.878;9.394;2022-11-15T03:08:57;11.20;99.90
10468;DHT22;5281;48.878;9.394;2022-11-15T03:11:30;11.20;99.90
10468;DHT22;5281;48.878;9.394;2022-11-15T03:14:05;11.30;99.90
10468;DHT22;5281;48.878;9.394;2022-11-15T03:16:38;11.30;99.90
10468;DHT22;5281;48.878;9.394;2022-11-15T03:19:12;11.40;99.90
10468;DHT22;5281;48.878;9.394;2022-11-15T03:21:40;11.40;99.90
10468;DHT22;5281;48.878;9.394;2022-11-15T03:24:08;11.40;99.90
10468;DHT22;5281;48.878;9.394;2022-11-15T03:26:38;11.50;99.90
10468;DHT22;5281;48.878;9.394;2022-11-15T03:29:11;11.40;99.90
10468;DHT22;5281;48.878;9.394;2022-11-15T03:31:44;11.40;99.90
10468;DHT22;5281;48.878;9.394;2022-11-15T03:34:20;11.40;99.90
10468;DHT22;5281;48.878;9.394;2022-11-15T03:36:50;11.30;99.90
10468;DHT22;5281;48.878;9.394;2022-11-15T03:39:18;11.30;99.90
10468;DHT22;5281;48.878;9.394;2022-11-15T03:41:49;11.20;99.90
10468;DHT22;5281;48.878;9.394;2022-11-15T03:44:28;11.10;99.90
10468;DHT22;5281;48.878;9.394;2022-11-15T03:47:02;11.00;99.90
10468;DHT22;5281;48.878;9.394;2022-11-15T03:49:33;10.90;99.90
10468;DHT22;5281;48.878;9.394;2022-11-15T03:52:02;10.90;99.90
10468;DHT22;5281;48.878;9.394;2022-11-15T03:54:29;10.90;99.90
10468;DHT22;5281;48.878;9.394;2022-11-15T03:56:56;10.80;99.90
10468;DHT22;5281;48.878;9.394;2022-11-15T03:59:24;10.70;99.90
10468;DHT22;5281;48.878;9.394;2022-11-15T04:01:51;10.70;99.90
10468;DHT22;5281;48.878;9.394;2022-11-15T04:04:18;10.70;99.90
10468;DHT22;5281;48.878;9.394;2022-11-15T04:06:46;10.70;99.90
10468;DHT22;5281;48.878;9.394;2022-11-15T04:09:13;10.60;99.90
10468;DHT22;5281;48.878;9.394;2022-11-15T04:11:40;10.60;99.90
10468;DHT22;5281;48.878;9.394;2022-11-15T04:14:06;10.70;99.90
10468;DHT22;5281;48.878;9.394;2022-11-15T04:16:33;10.70;99.90
10468;DHT22;5281;48.878;9.394;2022-11-15T04:19:00;10.70;99.90
10468;DHT22;5281;48.878;9.394;2022-11-15T04:21:46;10.60;99.90
10468;DHT22;5281;48.878;9.394;2022-11-15T04:24:30;10.60;99.90
10468;DHT22;5281;48.878;9.394;2022-11-15T04:26:57;10.60;99.90
10468;DHT22;5281;48.878;9.394;2022-11-15T04:29:24;10.50;99.90
10468;DHT22;5281;48.878;9.394;2022-11-15T04:32:03;10.40;99.90
10468;DHT22;5281;48.878;9.394;2022-11-15T04:34:31;10.40;99.90
10468;DHT22;5281;48.878;9.394;2022-11-15T04:36:59;10.40;99.90
10468;DHT22;5281;48.878;9.394;2022-11-15T04:39:38;10.40;99.90
10468;DHT22;5281;48.878;9.394;2022-11-15T04:42:05;10.40;99.90
10468;DHT22;5281;48.878;9.394;2022-11-15T04:44:32;10.30;99.90
10468;DHT22;5281;48.878;9.394;2022-11-15T04:46:59;10.30;99.90
10468;DHT22;5281;48.878;9.394;2022-11-15T04:49:26;10.20;99.90
10468;DHT22;5281;48.878;9.394;2022-11-15T04:51:53;10.20;99.90
10468;DHT22;5281;48.878;9.394;2022-11-15T04:54:22;10.20;99.90
10468;DHT22;5281;48.878;9.394;2022-11-15T04:56:49;10.10;99.90
10468;DHT22;5281;48.878;9.394;2022-11-15T04:59:16;10.10;99.90
10468;DHT22;5281;48.878;9.394;2022-11-15T05:01:42;10.00;99.90
10468;DHT22;5281;48.878;9.394;2022-11-15T05:04:09;9.90;99.90
10468;DHT22;5281;48.878;9.394;2022-11-15T05:06:44;9.80;99.90
10468;DHT22;5281;48.878;9.394;2022-11-15T05:09:14;9.70;99.90
10468;DHT22;5281;48.878;9.394;2022-11-15T05:11:43;9.60;99.90
10468;DHT22;5281;48.878;9.394;2022-11-15T05:14:10;9.50;99.90
10468;DHT22;5281;48.878;9.394;2022-11-15T05:16:37;9.50;99.90
10468;DHT22;5281;48.878;9.394;2022-11-15T05:19:04;9.40;99.90
10468;DHT22;5281;48.878;9.394;2022-11-15T05:21:31;9.40;99.90
10468;DHT22;5281;48.878;9.394;2022-11-15T05:23:58;9.30;99.90
10468;DHT22;5281;48.878;9.394;2022-11-15T05:26:26;9.20;99.90
10468;DHT22;5281;48.878;9.394;2022-11-15T05:28:55;9.10;99.90
10468;DHT22;5281;48.878;9.394;2022-11-15T05:31:23;9.00;99.90
10468;DHT22;5281;48.878;9.394;2022-11-15T05:33:51;9.10;99.90
10468;DHT22;5281;48.878;9.394;2022-11-15T05:36:21;9.20;99.90
10468;DHT22;5281;48.878;9.394;2022-11-15T05:38:51;9.30;99.90
10468;DHT22;5281;48.878;9.394;2022-11-15T05:41:19;9.40;99.90
10468;DHT22;5281;48.878;9.394;2022-11-15T05:43:48;9.40;99.90
10468;DHT22;5281;48.878;9.394;2022-11-15T05:46:18;9.30;99.90
10468;DHT22;5281;48.878;9.394;2022-11-15T05:48:47;9.10;99.90
10468;DHT22;5281;48.878;9.394;2022-11-15T05:51:17;9.20;99.90
10468;DHT22;5281;48.878;9.394;2022-11-15T05:53:46;9.30;99.90
10468;DHT22;5281;48.878;9.394;2022-11-15T05:56:14;9.30;99.90
10468;DHT22;5281;48.878;9.394;2022-11-15T05:58:42;9.20;99.90
10468;DHT22;5281;48.878;9.394;2022-11-15T06:01:09;9.30;99.90
10468;DHT22;5281;48.878;9.394;2022-11-15T06:03:37;9.40;99.90
10468;DHT22;5281;48.878;9.394;2022-11-15T06:06:04;9.50;99.90
10468;DHT22;5281;48.878;9.394;2022-11-15T06:08:31;9.60;99.90
10468;DHT22;5281;48.878;9.394;2022-11-15T06:11:03;9.60;99.90
10468;DHT22;5281;48.878;9.394;2022-11-15T06:13:30;9.70;99.90
10468;DHT22;5281;48.878;9.394;2022-11-15T06:15:57;9.60;99.90
10468;DHT22;5281;48.878;9.394;2022-11-15T06:18:24;9.60;99.90
10468;DHT22;5281;48.878;9.394;2022-11-15T06:20:53;9.50;99.90
10468;DHT22;5281;48.878;9.394;2022-11-15T06:23:20;9.50;99.90
10468;DHT22;5281;48.878;9.394;2022-11-15T06:25:46;9.30;99.90
10468;DHT22;5281;48.878;9.394;2022-11-15T06:28:13;9.40;99.90
10468;DHT22;5281;48.878;9.394;2022-11-15T06:30:40;9.50;99.90
10468;DHT22;5281;48.878;9.394;2022-11-15T06:33:07;9.40;99.90
10468;DHT22;5281;48.878;9.394;2022-11-15T06:35:35;9.30;99.90
10468;DHT22;5281;48.878;9.394;2022-11-15T06:38:04;9.30;99.90
10468;DHT22;5281;48.878;9.394;2022-11-15T06:40:33;9.30;99.90
10468;DHT22;5281;48.878;9.394;2022-11-15T06:43:02;9.30;99.90
10468;DHT22;5281;48.878;9.394;2022-11-15T06:45:30;9.40;99.90
10468;DHT22;5281;48.878;9.394;2022-11-15T06:47:57;9.40;99.90
10468;DHT22;5281;48.878;9.394;2022-11-15T06:50:24;9.40;99.90
10468;DHT22;5281;48.878;9.394;2022-11-15T06:52:51;9.60;99.90
10468;DHT22;5281;48.878;9.394;2022-11-15T06:55:19;9.60;99.90
10468;DHT22;5281;48.878;9.394;2022-11-15T06:57:47;9.60;99.90
10468;DHT22;5281;48.878;9.394;2022-11-15T07:00:15;9.60;99.90
10468;DHT22;5281;48.878;9.394;2022-11-15T07:02:42;9.50;99.90
10468;DHT22;5281;48.878;9.394;2022-11-15T07:05:09;9.60;99.90
10468;DHT22;5281;48.878;9.394;2022-11-15T07:07:36;9.60;99.90
10468;DHT22;5281;48.878;9.394;2022-11-15T07:10:05;9.60;99.90
10468;DHT22;5281;48.878;9.394;2022-11-15T07:12:33;9.60;99.90
10468;DHT22;5281;48.878;9.394;2022-11-15T07:15:00;9.60;99.90
10468;DHT22;5281;48.878;9.394;2022-11-15T07:17:27;9.60;99.90
10468;DHT22;5281;48.878;9.394;2022-11-15T07:19:54;9.60;99.90
10468;DHT22;5281;48.878;9.394;2022-11-15T07:22:21;9.60;99.90
10468;DHT22;5281;48.878;9.394;2022-11-15T07:24:48;9.60;99.90
10468;DHT22;5281;48.878;9.394;2022-11-15T07:27:14;9.70;99.90
10468;DHT22;5281;48.878;9.394;2022-11-15T07:29:43;9.80;99.90
10468;DHT22;5281;48.878;9.394;2022-11-15T07:32:10;9.80;99.90
10468;DHT22;5281;48.878;9.394;2022-11-15T07:34:37;9.90;99.90
10468;DHT22;5281;48.878;9.394;2022-11-15T07:37:03;10.10;99.90
10468;DHT22;5281;48.878;9.394;2022-11-15T07:39:30;10.30;99.90
10468;DHT22;5281;48.878;9.394;2022-11-15T07:41:57;10.50;99.90
10468;DHT22;5281;48.878;9.394;2022-11-15T07:44:39;10.60;99.90
10468;DHT22;5281;48.878;9.394;2022-11-15T07:47:07;10.60;99.90
10468;DHT22;5281;48.878;9.394;2022-11-15T07:49:34;10.70;99.90
10468;DHT22;5281;48.878;9.394;2022-11-15T07:52:01;10.70;99.90
10468;DHT22;5281;48.878;9.394;2022-11-15T07:54:27;10.70;99.90
10468;DHT22;5281;48.878;9.394;2022-11-15T07:56:54;10.90;99.90
10468;DHT22;5281;48.878;9.394;2022-11-15T07:59:22;11.00;99.90
10468;DHT22;5281;48.878;9.394;2022-11-15T08:01:49;11.00;99.90
10468;DHT22;5281;48.878;9.394;2022-11-15T08:04:17;11.10;99.90
10468;DHT22;5281;48.878;9.394;2022-11-15T08:06:44;11.20;99.90
10468;DHT22;5281;48.878;9.394;2022-11-15T08:09:11;11.30;99.90
10468;DHT22;5281;48.878;9.394;2022-11-15T08:11:38;11.40;99.90
10468;DHT22;5281;48.878;9.394;2022-11-15T08:14:05;11.60;99.90
10468;DHT22;5281;48.878;9.394;2022-11-15T08:16:32;11.80;99.90
10468;DHT22;5281;48.878;9.394;2022-11-15T08:18:59;11.90;99.90
10468;DHT22;5281;48.878;9.394;2022-11-15T08:21:27;12.10;99.90
10468;DHT22;5281;48.878;9.394;2022-11-15T08:23:54;12.30;99.90
10468;DHT22;5281;48.878;9.394;2022-11-15T08:26:21;12.60;99.90
10468;DHT22;5281;48.878;9.394;2022-11-15T08:28:50;12.80;99.90
10468;DHT22;5281;48.878;9.394;2022-11-15T08:31:18;13.10;99.90
10468;DHT22;5281;48.878;9.394;2022-11-15T08:33:45;13.30;99.90
10468;DHT22;5281;48.878;9.394;2022-11-15T08:36:13;13.50;99.90
10468;DHT22;5281;48.878;9.394;2022-11-15T08:38:42;13.80;99.90
10468;DHT22;5281;48.878;9.394;2022-11-15T08:41:12;14.10;99.90
10468;DHT22;5281;48.878;9.394;2022-11-15T08:43:40;14.30;99.90
10468;DHT22;5281;48.878;9.394;2022-11-15T08:46:09;14.50;99.90
10468;DHT22;5281;48.878;9.394;2022-11-15T08:48:37;14.70;99.90
10468;DHT22;5281;48.878;9.394;2022-11-15T08:51:04;14.80;99.90
10468;DHT22;5281;48.878;9.394;2022-11-15T08:53:31;14.90;99.90
10468;DHT22;5281;48.878;9.394;2022-11-15T08:56:00;15.00;99.90
10468;DHT22;5281;48.878;9.394;2022-11-15T08:58:27;15.10;99.90
10468;DHT22;5281;48.878;9.394;2022-11-15T09:00:54;15.20;99.90
10468;DHT22;5281;48.878;9.394;2022-11-15T09:03:21;15.20;99.90
10468;DHT22;5281;48.878;9.394;2022-11-15T09:05:48;15.20;99.90
10468;DHT22;5281;48.878;9.394;2022-11-15T09:08:15;15.10;99.90
10468;DHT22;5281;48.878;9.394;2022-11-15T09:10:42;15.10;99.90
10468;DHT22;5281;48.878;9.394;2022-11-15T09:13:10;15.00;99.90
10468;DHT22;5281;48.878;9.394;2022-11-15T09:15:37;14.80;99.90
10468;DHT22;5281;48.878;9.394;2022-11-15T09:18:04;14.70;99.90
10468;DHT22;5281;48.878;9.394;2022-11-15T09:20:31;14.50;99.90
10468;DHT22;5281;48.878;9.394;2022-11-15T09:22:59;14.50;99.90
10468;DHT22;5281;48.878;9.394;2022-11-15T09:25:28;14.50;99.90
10468;DHT22;5281;48.878;9.394;2022-11-15T09:27:55;14.60;99.90
10468;DHT22;5281;48.878;9.394;2022-11-15T09:30:23;14.60;99.90
10468;DHT22;5281;48.878;9.394;2022-11-15T09:32:51;14.70;99.90
10468;DHT22;5281;48.878;9.394;2022-11-15T09:35:17;14.90;99.90
10468;DHT22;5281;48.878;9.394;2022-11-15T09:37:44;15.20;99.90
10468;DHT22;5281;48.878;9.394;2022-11-15T09:40:13;15.50;99.90
10468;DHT22;5281;48.878;9.394;2022-11-15T09:43:09;15.70;99.90
10468;DHT22;5281;48.878;9.394;2022-11-15T09:45:48;15.80;99.90
10468;DHT22;5281;48.878;9.394;2022-11-15T09:48:39;16.00;99.90
10468;DHT22;5281;48.878;9.394;2022-11-15T09:51:16;16.20;99.90
10468;DHT22;5281;48.878;9.394;2022-11-15T09:53:49;16.40;99.90
10468;DHT22;5281;48.878;9.394;2022-11-15T09:56:19;16.60;99.90
10468;DHT22;5281;48.878;9.394;2022-11-15T09:58:53;16.80;99.90
10468;DHT22;5281;48.878;9.394;2022-11-15T10:01:38;17.00;99.90
10468;DHT22;5281;48.878;9.394;2022-11-15T10:04:08;17.30;99.90
10468;DHT22;5281;48.878;9.394;2022-11-15T10:06:38;17.40;99.90
10468;DHT22;5281;48.878;9.394;2022-11-15T10:09:11;17.50;99.90
10468;DHT22;5281;48.878;9.394;2022-11-15T10:11:40;17.60;99.90
10468;DHT22;5281;48.878;9.394;2022-11-15T10:14:11;17.60;99.90
10468;DHT22;5281;48.878;9.394;2022-11-15T10:19:51;17.60;99.90
10468;DHT22;5281;48.878;9.394;2022-11-15T10:22:25;17.60;99.90
10468;DHT22;5281;48.878;9.394;2022-11-15T10:25:00;17.70;99.90
10468;DHT22;5281;48.878;9.394;2022-11-15T10:27:33;17.90;99.90
10468;DHT22;5281;48.878;9.394;2022-11-15T10:30:00;18.00;99.90
10468;DHT22;5281;48.878;9.394;2022-11-15T10:32:29;18.20;99.90
10468;DHT22;5281;48.878;9.394;2022-11-15T10:34:59;18.30;99.90
10468;DHT22;5281;48.878;9.394;2022-11-15T10:37:42;18.60;99.90
10468;DHT22;5281;48.878;9.394;2022-11-15T10:40:16;18.80;99.90
10468;DHT22;5281;48.878;9.394;2022-11-15T10:42:43;18.90;99.90
10468;DHT22;5281;48.878;9.394;2022-11-15T10:45:24;19.00;99.90
10468;DHT22;5281;48.878;9.394;2022-11-15T10:47:53;19.10;99.90
10468;DHT22;5281;48.878;9.394;2022-11-15T10:50:31;19.20;99.90
10468;DHT22;5281;48.878;9.394;2022-11-15T10:52:58;19.30;99.90
10468;DHT22;5281;48.878;9.394;2022-11-15T10:55:28;19.30;99.90
10468;DHT22;5281;48.878;9.394;2022-11-15T10:58:02;19.30;99.90
10468;DHT22;5281;48.878;9.394;2022-11-15T11:00:38;19.40;99.90
10468;DHT22;5281;48.878;9.394;2022-11-15T11:03:28;19.40;99.90
10468;DHT22;5281;48.878;9.394;2022-11-15T11:06:05;19.40;99.90
10468;DHT22;5281;48.878;9.394;2022-11-15T11:08:32;19.30;99.90
10468;DHT22;5281;48.878;9.394;2022-11-15T11:11:01;19.30;99.90
10468;DHT22;5281;48.878;9.394;2022-11-15T11:13:29;19.00;99.90
10468;DHT22;5281;48.878;9.394;2022-11-15T11:16:06;18.90;99.90
10468;DHT22;5281;48.878;9.394;2022-11-15T11:18:41;18.90;99.90
10468;DHT22;5281;48.878;9.394;2022-11-15T11:21:17;19.00;99.90
10468;DHT22;5281;48.878;9.394;2022-11-15T11:23:50;19.10;99.90
10468;DHT22;5281;48.878;9.394;2022-11-15T11:26:35;19.00;99.90
10468;DHT22;5281;48.878;9.394;2022-11-15T11:29:17;18.80;99.90
10468;DHT22;5281;48.878;9.394;2022-11-15T11:31:52;18.70;99.90
10468;DHT22;5281;48.878;9.394;2022-11-15T11:34:34;18.70;99.90
10468;DHT22;5281;48.878;9.394;2022-11-15T11:37:09;18.70;99.90
10468;DHT22;5281;48.878;9.394;2022-11-15T11:39:44;18.60;99.90
10468;DHT22;5281;48.878;9.394;2022-11-15T11:42:26;18.40;99.90
10468;DHT22;5281;48.878;9.394;2022-11-15T11:45:02;18.20;99.90
10468;DHT22;5281;48.878;9.394;2022-11-15T11:47:35;18.20;99.90
10468;DHT22;5281;48.878;9.394;2022-11-15T11:50:11;18.50;99.90
10468;DHT22;5281;48.878;9.394;2022-11-15T11:52:43;18.70;99.90
10468;DHT22;5281;48.878;9.394;2022-11-15T11:55:15;18.80;99.90
10468;DHT22;5281;48.878;9.394;2022-11-15T11:57:47;18.80;99.90
10468;DHT22;5281;48.878;9.394;2022-11-15T12:00:18;18.70;99.90
10468;DHT22;5281;48.878;9.394;2022-11-15T12:02:50;18.50;99.90
10468;DHT22;5281;48.878;9.394;2022-11-15T12:05:25;18.50;99.90
10468;DHT22;5281;48.878;9.394;2022-11-15T12:07:56;18.60;99.90
10468;DHT22;5281;48.878;9.394;2022-11-15T12:10:29;18.70;99.90
10468;DHT22;5281;48.878;9.394;2022-11-15T12:13:01;18.80;99.90
10468;DHT22;5281;48.878;9.394;2022-11-15T12:15:35;18.90;99.90
10468;DHT22;5281;48.878;9.394;2022-11-15T12:18:03;18.90;99.90
10468;DHT22;5281;48.878;9.394;2022-11-15T12:20:35;18.90;99.90
10468;DHT22;5281;48.878;9.394;2022-11-15T12:23:08;18.90;99.90
10468;DHT22;5281;48.878;9.394;2022-11-15T12:25:44;19.00;99.90
10468;DHT22;5281;48.878;9.394;2022-11-15T12:28:15;19.20;99.90
10468;DHT22;5281;48.878;9.394;2022-11-15T12:30:46;19.30;99.90
10468;DHT22;5281;48.878;9.394;2022-11-15T12:33:36;19.50;99.90
10468;DHT22;5281;48.878;9.394;2022-11-15T12:36:08;19.60;99.90
10468;DHT22;5281;48.878;9.394;2022-11-15T12:38:56;19.70;99.90
10468;DHT22;5281;48.878;9.394;2022-11-15T12:41:25;19.60;99.90
10468;DHT22;5281;48.878;9.394;2022-11-15T12:43:52;19.50;99.90
10468;DHT22;5281;48.878;9.394;2022-11-15T12:46:22;19.40;99.90
10468;DHT22;5281;48.878;9.394;2022-11-15T12:48:54;19.40;99.90
10468;DHT22;5281;48.878;9.394;2022-11-15T12:54:55;19.30;99.90
10468;DHT22;5281;48.878;9.394;2022-11-15T12:57:29;19.30;99.90
10468;DHT22;5281;48.878;9.394;2022-11-15T12:59:58;19.30;99.90
10468;DHT22;5281;48.878;9.394;2022-11-15T13:02:29;19.40;99.90
10468;DHT22;5281;48.878;9.394;2022-11-15T13:08:38;19.20;99.90
10468;DHT22;5281;48.878;9.394;2022-11-15T13:11:44;19.20;99.90
10468;DHT22;5281;48.878;9.394;2022-11-15T13:14:50;19.10;99.90
10468;DHT22;5281;48.878;9.394;2022-11-15T13:17:31;19.10;99.90
10468;DHT22;5281;48.878;9.394;2022-11-15T13:20:15;19.00;99.90
10468;DHT22;5281;48.878;9.394;2022-11-15T13:22:47;18.90;99.90
10468;DHT22;5281;48.878;9.394;2022-11-15T13:25:51;18.80;99.90
10468;DHT22;5281;48.878;9.394;2022-11-15T13:28:27;18.70;99.90
10468;DHT22;5281;48.878;9.394;2022-11-15T13:30:58;18.70;99.90
10468;DHT22;5281;48.878;9.394;2022-11-15T13:33:30;18.70;99.90
10468;DHT22;5281;48.878;9.394;2022-11-15T13:35:59;18.60;99.90
10468;DHT22;5281;48.878;9.394;2022-11-15T13:38:28;18.50;99.90
10468;DHT22;5281;48.878;9.394;2022-11-15T13:40:56;18.40;99.90
10468;DHT22;5281;48.878;9.394;2022-11-15T13:43:33;18.40;99.90
10468;DHT22;5281;48.878;9.394;2022-11-15T13:46:05;18.40;99.90
10468;DHT22;5281;48.878;9.394;2022-11-15T13:48:32;18.30;99.90
10468;DHT22;5281;48.878;9.394;2022-11-15T13:51:01;18.10;99.90
10468;DHT22;5281;48.878;9.394;2022-11-15T13:53:30;18.00;99.90
10468;DHT22;5281;48.878;9.394;2022-11-15T13:55:58;17.90;99.90
10468;DHT22;5281;48.878;9.394;2022-11-15T13:58:26;17.90;99.90
10468;DHT22;5281;48.878;9.394;2022-11-15T14:01:01;18.00;99.90
10468;DHT22;5281;48.878;9.394;2022-11-15T14:03:30;18.00;99.90
10468;DHT22;5281;48.878;9.394;2022-11-15T14:06:07;18.00;99.90
10468;DHT22;5281;48.878;9.394;2022-11-15T14:08:37;18.10;99.90
10468;DHT22;5281;48.878;9.394;2022-11-15T14:11:06;18.10;99.90
10468;DHT22;5281;48.878;9.394;2022-11-15T14:13:34;18.10;99.90
10468;DHT22;5281;48.878;9.394;2022-11-15T14:16:17;18.10;99.90
10468;DHT22;5281;48.878;9.394;2022-11-15T14:18:46;18.10;99.90
10468;DHT22;5281;48.878;9.394;2022-11-15T14:21:14;18.10;99.90
10468;DHT22;5281;48.878;9.394;2022-11-15T14:23:41;18.00;99.90
10468;DHT22;5281;48.878;9.394;2022-11-15T14:26:26;17.90;99.90
10468;DHT22;5281;48.878;9.394;2022-11-15T14:28:54;17.80;99.90
10468;DHT22;5281;48.878;9.394;2022-11-15T14:31:22;17.70;99.90
10468;DHT22;5281;48.878;9.394;2022-11-15T14:33:49;17.70;99.90
10468;DHT22;5281;48.878;9.394;2022-11-15T14:36:18;17.60;99.90
10468;DHT22;5281;48.878;9.394;2022-11-15T14:38:45;17.50;99.90
10468;DHT22;5281;48.878;9.394;2022-11-15T14:41:18;17.50;99.90
10468;DHT22;5281;48.878;9.394;2022-11-15T14:43:45;17.50;99.90
10468;DHT22;5281;48.878;9.394;2022-11-15T14:46:12;17.50;99.90
10468;DHT22;5281;48.878;9.394;2022-11-15T14:48:41;17.40;99.90
10468;DHT22;5281;48.878;9.394;2022-11-15T14:51:18;17.30;99.90
10468;DHT22;5281;48.878;9.394;2022-11-15T14:53:46;17.30;99.90
10468;DHT22;5281;48.878;9.394;2022-11-15T14:56:14;17.20;99.90
10468;DHT22;5281;48.878;9.394;2022-11-15T14:58:42;17.20;99.90
10468;DHT22;5281;48.878;9.394;2022-11-15T15:01:13;17.10;99.90
10468;DHT22;5281;48.878;9.394;2022-11-15T15:03:41;17.00;99.90
10468;DHT22;5281;48.878;9.394;2022-11-15T15:06:09;16.90;99.90
10468;DHT22;5281;48.878;9.394;2022-11-15T15:08:38;16.80;99.90
10468;DHT22;5281;48.878;9.394;2022-11-15T15:11:10;16.70;99.90
10468;DHT22;5281;48.878;9.394;2022-11-15T15:13:41;16.50;99.90
10468;DHT22;5281;48.878;9.394;2022-11-15T15:16:08;16.20;99.90
10468;DHT22;5281;48.878;9.394;2022-11-15T15:18:35;16.00;99.90
10468;DHT22;5281;48.878;9.394;2022-11-15T15:21:16;15.70;99.90
10468;DHT22;5281;48.878;9.394;2022-11-15T15:23:44;15.40;99.90
10468;DHT22;5281;48.878;9.394;2022-11-15T15:26:11;15.20;99.90
10468;DHT22;5281;48.878;9.394;2022-11-15T15:28:38;15.20;99.90
10468;DHT22;5281;48.878;9.394;2022-11-15T15:31:05;15.20;99.90
10468;DHT22;5281;48.878;9.394;2022-11-15T15:33:32;15.20;99.90
10468;DHT22;5281;48.878;9.394;2022-11-15T15:35:59;15.20;99.90
10468;DHT22;5281;48.878;9.394;2022-11-15T15:38:28;15.30;99.90
10468;DHT22;5281;48.878;9.394;2022-11-15T15:40:54;15.30;99.90
10468;DHT22;5281;48.878;9.394;2022-11-15T15:43:21;15.30;99.90
10468;DHT22;5281;48.878;9.394;2022-11-15T15:45:48;15.30;99.90
10468;DHT22;5281;48.878;9.394;2022-11-15T15:48:16;15.20;99.90
10468;DHT22;5281;48.878;9.394;2022-11-15T15:50:43;15.20;99.90
10468;DHT22;5281;48.878;9.394;2022-11-15T15:53:12;15.20;99.90
10468;DHT22;5281;48.878;9.394;2022-11-15T15:55:40;15.20;99.90
10468;DHT22;5281;48.878;9.394;2022-11-15T15:58:07;15.20;99.90
10468;DHT22;5281;48.878;9.394;2022-11-15T16:00:34;15.20;99.90
10468;DHT22;5281;48.878;9.394;2022-11-15T16:03:01;15.20;99.90
10468;DHT22;5281;48.878;9.394;2022-11-15T16:05:28;15.10;99.90
10468;DHT22;5281;48.878;9.394;2022-11-15T16:07:55;15.10;99.90
10468;DHT22;5281;48.878;9.394;2022-11-15T16:10:23;15.00;99.90
10468;DHT22;5281;48.878;9.394;2022-11-15T16:12:53;15.00;99.90
10468;DHT22;5281;48.878;9.394;2022-11-15T16:15:21;15.00;99.90
10468;DHT22;5281;48.878;9.394;2022-11-15T16:17:50;15.00;99.90
10468;DHT22;5281;48.878;9.394;2022-11-15T16:20:33;14.90;99.90